sensor_id;sensor_type;location;lat;lon;timestamp;P1;durP1;ratioP1;P2;durP2;ratioP2
12141;SDS011;6134;59.284;18.022;2023-08-30T00:01:14;3.60;;;1.63;;
12141;SDS011;6134;59.284;18.022;2023-08-30T00:03:43;2.90;;;1.83;;
12141;SDS011;6134;59.284;18.022;2023-08-30T00:06:12;2.40;;;1.92;;
12141;SDS011;6134;59.284;18.022;2023-08-30T00:08:42;3.25;;;1.63;;
12141;SDS011;6134;59.284;18.022;2023-08-30T00:11:11;2.55;;;1.73;;
12141;SDS011;6134;59.284;18.022;2023-08-30T00:13:39;1.80;;;1.60;;
12141;SDS011;6134;59.284;18.022;2023-08-30T00:16:10;2.97;;;1.70;;
12141;SDS011;6134;59.284;18.022;2023-08-30T00:18:39;3.22;;;1.70;;
12141;SDS011;6134;59.284;18.022;2023-08-30T00:21:08;4.45;;;1.70;;
12141;SDS011;6134;59.284;18.022;2023-08-30T00:23:37;3.00;;;1.50;;
12141;SDS011;6134;59.284;18.022;2023-08-30T00:26:05;3.63;;;1.80;;
12141;SDS011;6134;59.284;18.022;2023-08-30T00:28:34;2.25;;;1.65;;
12141;SDS011;6134;59.284;18.022;2023-08-30T00:31:03;3.83;;;2.15;;
12141;SDS011;6134;59.284;18.022;2023-08-30T00:33:33;3.10;;;1.90;;
12141;SDS011;6134;59.284;18.022;2023-08-30T00:36:02;4.20;;;1.90;;
12141;SDS011;6134;59.284;18.022;2023-08-30T00:38:32;2.60;;;1.88;;
12141;SDS011;6134;59.284;18.022;2023-08-30T00:41:01;2.85;;;1.73;;
12141;SDS011;6134;59.284;18.022;2023-08-30T00:43:30;4.20;;;1.88;;
12141;SDS011;6134;59.284;18.022;2023-08-30T00:45:59;2.60;;;1.80;;
12141;SDS011;6134;59.284;18.022;2023-08-30T00:48:28;5.15;;;2.08;;
12141;SDS011;6134;59.284;18.022;2023-08-30T00:50:58;1.98;;;1.85;;
12141;SDS011;6134;59.284;18.022;2023-08-30T00:53:27;2.53;;;1.80;;
12141;SDS011;6134;59.284;18.022;2023-08-30T00:55:56;2.10;;;1.60;;
12141;SDS011;6134;59.284;18.022;2023-08-30T00:58:25;3.15;;;1.92;;
12141;SDS011;6134;59.284;18.022;2023-08-30T01:00:54;1.60;;;1.50;;
12141;SDS011;6134;59.284;18.022;2023-08-30T01:03:24;2.08;;;1.50;;
12141;SDS011;6134;59.284;18.022;2023-08-30T01:05:54;2.90;;;1.92;;
12141;SDS011;6134;59.284;18.022;2023-08-30T01:08:24;4.97;;;1.85;;
12141;SDS011;6134;59.284;18.022;2023-08-30T01:10:53;3.20;;;1.65;;
12141;SDS011;6134;59.284;18.022;2023-08-30T01:13:26;2.08;;;1.88;;
12141;SDS011;6134;59.284;18.022;2023-08-30T01:15:57;2.53;;;2.08;;
12141;SDS011;6134;59.284;18.022;2023-08-30T01:18:26;3.30;;;2.00;;
12141;SDS011;6134;59.284;18.022;2023-08-30T01:20:55;3.45;;;2.20;;
12141;SDS011;6134;59.284;18.022;2023-08-30T01:23:29;2.75;;;1.83;;
12141;SDS011;6134;59.284;18.022;2023-08-30T01:26:05;3.00;;;2.25;;
12141;SDS011;6134;59.284;18.022;2023-08-30T01:28:36;2.55;;;1.60;;
12141;SDS011;6134;59.284;18.022;2023-08-30T01:31:06;1.92;;;1.65;;
12141;SDS011;6134;59.284;18.022;2023-08-30T01:33:35;1.70;;;1.60;;
12141;SDS011;6134;59.284;18.022;2023-08-30T01:36:04;2.20;;;1.73;;
12141;SDS011;6134;59.284;18.022;2023-08-30T01:38:34;3.90;;;2.00;;
12141;SDS011;6134;59.284;18.022;2023-08-30T01:41:03;4.05;;;2.03;;
12141;SDS011;6134;59.284;18.022;2023-08-30T01:43:32;4.13;;;1.80;;
12141;SDS011;6134;59.284;18.022;2023-08-30T01:46:04;2.42;;;2.22;;
12141;SDS011;6134;59.284;18.022;2023-08-30T01:48:34;4.03;;;2.08;;
12141;SDS011;6134;59.284;18.022;2023-08-30T01:51:03;6.05;;;2.00;;
12141;SDS011;6134;59.284;18.022;2023-08-30T01:53:34;5.30;;;2.10;;
12141;SDS011;6134;59.284;18.022;2023-08-30T01:56:03;4.60;;;2.38;;
12141;SDS011;6134;59.284;18.022;2023-08-30T01:58:34;3.47;;;2.40;;
12141;SDS011;6134;59.284;18.022;2023-08-30T02:01:04;3.50;;;2.72;;
12141;SDS011;6134;59.284;18.022;2023-08-30T02:03:35;2.88;;;2.00;;
12141;SDS011;6134;59.284;18.022;2023-08-30T02:06:04;2.20;;;2.00;;
12141;SDS011;6134;59.284;18.022;2023-08-30T02:08:36;4.00;;;2.03;;
12141;SDS011;6134;59.284;18.022;2023-08-30T02:11:07;3.75;;;2.22;;
12141;SDS011;6134;59.284;18.022;2023-08-30T02:13:36;3.58;;;2.22;;
12141;SDS011;6134;59.284;18.022;2023-08-30T02:16:06;2.65;;;2.17;;
12141;SDS011;6134;59.284;18.022;2023-08-30T02:18:37;3.92;;;2.03;;
12141;SDS011;6134;59.284;18.022;2023-08-30T02:21:06;3.30;;;2.28;;
12141;SDS011;6134;59.284;18.022;2023-08-30T02:23:35;4.85;;;2.90;;
12141;SDS011;6134;59.284;18.022;2023-08-30T02:26:03;6.15;;;2.40;;
12141;SDS011;6134;59.284;18.022;2023-08-30T02:28:32;2.67;;;2.22;;
12141;SDS011;6134;59.284;18.022;2023-08-30T02:31:01;3.22;;;2.38;;
12141;SDS011;6134;59.284;18.022;2023-08-30T02:33:31;2.63;;;2.25;;
12141;SDS011;6134;59.284;18.022;2023-08-30T02:36:00;6.65;;;2.50;;
12141;SDS011;6134;59.284;18.022;2023-08-30T02:38:29;4.43;;;2.70;;
12141;SDS011;6134;59.284;18.022;2023-08-30T02:40:58;3.85;;;2.42;;
12141;SDS011;6134;59.284;18.022;2023-08-30T02:43:27;2.53;;;2.33;;
12141;SDS011;6134;59.284;18.022;2023-08-30T02:45:56;5.43;;;2.60;;
12141;SDS011;6134;59.284;18.022;2023-08-30T02:48:24;2.60;;;2.22;;
12141;SDS011;6134;59.284;18.022;2023-08-30T02:50:54;3.63;;;2.55;;
12141;SDS011;6134;59.284;18.022;2023-08-30T02:53:24;4.88;;;2.60;;
12141;SDS011;6134;59.284;18.022;2023-08-30T02:55:53;2.88;;;2.30;;
12141;SDS011;6134;59.284;18.022;2023-08-30T02:58:23;4.60;;;2.50;;
12141;SDS011;6134;59.284;18.022;2023-08-30T03:00:57;3.15;;;2.25;;
12141;SDS011;6134;59.284;18.022;2023-08-30T03:03:26;3.08;;;2.40;;
12141;SDS011;6134;59.284;18.022;2023-08-30T03:05:56;4.95;;;2.80;;
12141;SDS011;6134;59.284;18.022;2023-08-30T03:08:25;2.72;;;2.45;;
12141;SDS011;6134;59.284;18.022;2023-08-30T03:10:53;5.00;;;2.75;;
12141;SDS011;6134;59.284;18.022;2023-08-30T03:13:22;2.83;;;2.30;;
12141;SDS011;6134;59.284;18.022;2023-08-30T03:15:51;4.40;;;2.70;;
12141;SDS011;6134;59.284;18.022;2023-08-30T03:18:20;3.63;;;3.00;;
12141;SDS011;6134;59.284;18.022;2023-08-30T03:20:48;5.72;;;2.63;;
12141;SDS011;6134;59.284;18.022;2023-08-30T03:23:29;2.45;;;2.25;;
12141;SDS011;6134;59.284;18.022;2023-08-30T03:25:58;4.88;;;3.20;;
12141;SDS011;6134;59.284;18.022;2023-08-30T03:28:28;3.08;;;2.78;;
12141;SDS011;6134;59.284;18.022;2023-08-30T03:30:57;4.25;;;2.40;;
12141;SDS011;6134;59.284;18.022;2023-08-30T03:33:26;4.43;;;2.63;;
12141;SDS011;6134;59.284;18.022;2023-08-30T03:35:57;3.88;;;2.60;;
12141;SDS011;6134;59.284;18.022;2023-08-30T03:38:26;3.22;;;2.92;;
12141;SDS011;6134;59.284;18.022;2023-08-30T03:40:56;6.53;;;2.92;;
12141;SDS011;6134;59.284;18.022;2023-08-30T03:43:25;3.20;;;2.90;;
12141;SDS011;6134;59.284;18.022;2023-08-30T03:45:54;4.05;;;2.65;;
12141;SDS011;6134;59.284;18.022;2023-08-30T03:48:23;4.28;;;2.90;;
12141;SDS011;6134;59.284;18.022;2023-08-30T03:50:51;3.88;;;2.80;;
12141;SDS011;6134;59.284;18.022;2023-08-30T03:53:20;3.58;;;2.70;;
12141;SDS011;6134;59.284;18.022;2023-08-30T03:55:49;3.78;;;3.05;;
12141;SDS011;6134;59.284;18.022;2023-08-30T03:58:20;3.92;;;3.17;;
12141;SDS011;6134;59.284;18.022;2023-08-30T04:00:49;6.35;;;3.00;;
12141;SDS011;6134;59.284;18.022;2023-08-30T04:03:18;4.00;;;2.95;;
12141;SDS011;6134;59.284;18.022;2023-08-30T04:05:47;4.50;;;3.15;;
12141;SDS011;6134;59.284;18.022;2023-08-30T04:08:16;4.15;;;2.90;;
12141;SDS011;6134;59.284;18.022;2023-08-30T04:10:44;6.10;;;3.50;;
12141;SDS011;6134;59.284;18.022;2023-08-30T04:13:15;3.80;;;3.10;;
12141;SDS011;6134;59.284;18.022;2023-08-30T04:15:45;4.22;;;3.03;;
12141;SDS011;6134;59.284;18.022;2023-08-30T04:18:13;6.05;;;2.80;;
12141;SDS011;6134;59.284;18.022;2023-08-30T04:20:43;4.88;;;2.72;;
12141;SDS011;6134;59.284;18.022;2023-08-30T04:23:12;3.58;;;2.90;;
12141;SDS011;6134;59.284;18.022;2023-08-30T04:25:43;3.60;;;2.80;;
12141;SDS011;6134;59.284;18.022;2023-08-30T04:28:12;4.90;;;3.05;;
12141;SDS011;6134;59.284;18.022;2023-08-30T04:30:41;5.25;;;3.10;;
12141;SDS011;6134;59.284;18.022;2023-08-30T04:33:11;6.50;;;3.30;;
12141;SDS011;6134;59.284;18.022;2023-08-30T04:35:40;4.57;;;2.97;;
12141;SDS011;6134;59.284;18.022;2023-08-30T04:38:08;7.28;;;3.22;;
12141;SDS011;6134;59.284;18.022;2023-08-30T04:40:38;6.07;;;3.35;;
12141;SDS011;6134;59.284;18.022;2023-08-30T04:43:06;4.55;;;3.30;;
12141;SDS011;6134;59.284;18.022;2023-08-30T04:45:35;5.22;;;2.90;;
12141;SDS011;6134;59.284;18.022;2023-08-30T04:48:05;4.20;;;3.30;;
12141;SDS011;6134;59.284;18.022;2023-08-30T04:50:36;6.20;;;3.17;;
12141;SDS011;6134;59.284;18.022;2023-08-30T04:53:05;4.38;;;3.92;;
12141;SDS011;6134;59.284;18.022;2023-08-30T04:55:34;8.45;;;3.50;;
12141;SDS011;6134;59.284;18.022;2023-08-30T04:58:03;6.00;;;3.38;;
12141;SDS011;6134;59.284;18.022;2023-08-30T05:00:34;5.50;;;3.15;;
12141;SDS011;6134;59.284;18.022;2023-08-30T05:03:03;5.22;;;3.45;;
12141;SDS011;6134;59.284;18.022;2023-08-30T05:05:31;9.98;;;3.55;;
12141;SDS011;6134;59.284;18.022;2023-08-30T05:08:03;7.60;;;3.17;;
12141;SDS011;6134;59.284;18.022;2023-08-30T05:10:32;3.90;;;3.10;;
12141;SDS011;6134;59.284;18.022;2023-08-30T05:13:02;4.50;;;3.17;;
12141;SDS011;6134;59.284;18.022;2023-08-30T05:15:31;4.32;;;3.58;;
12141;SDS011;6134;59.284;18.022;2023-08-30T05:18:00;3.22;;;2.72;;
12141;SDS011;6134;59.284;18.022;2023-08-30T05:20:29;3.75;;;2.78;;
12141;SDS011;6134;59.284;18.022;2023-08-30T05:22:58;5.47;;;3.03;;
12141;SDS011;6134;59.284;18.022;2023-08-30T05:25:28;3.70;;;3.10;;
12141;SDS011;6134;59.284;18.022;2023-08-30T05:27:57;5.15;;;3.30;;
12141;SDS011;6134;59.284;18.022;2023-08-30T05:30:26;9.38;;;3.72;;
12141;SDS011;6134;59.284;18.022;2023-08-30T05:32:57;7.20;;;3.50;;
12141;SDS011;6134;59.284;18.022;2023-08-30T05:35:46;5.40;;;3.28;;
12141;SDS011;6134;59.284;18.022;2023-08-30T05:38:27;16.73;;;3.50;;
12141;SDS011;6134;59.284;18.022;2023-08-30T05:41:06;7.07;;;4.00;;
12141;SDS011;6134;59.284;18.022;2023-08-30T05:43:35;8.18;;;3.97;;
12141;SDS011;6134;59.284;18.022;2023-08-30T05:46:05;6.97;;;3.47;;
12141;SDS011;6134;59.284;18.022;2023-08-30T05:48:39;5.50;;;3.35;;
12141;SDS011;6134;59.284;18.022;2023-08-30T05:51:08;6.90;;;3.53;;
12141;SDS011;6134;59.284;18.022;2023-08-30T05:53:37;3.53;;;3.00;;
12141;SDS011;6134;59.284;18.022;2023-08-30T05:56:07;6.80;;;3.85;;
12141;SDS011;6134;59.284;18.022;2023-08-30T05:58:36;7.28;;;3.58;;
12141;SDS011;6134;59.284;18.022;2023-08-30T06:01:05;3.67;;;3.13;;
12141;SDS011;6134;59.284;18.022;2023-08-30T06:03:34;6.40;;;3.40;;
12141;SDS011;6134;59.284;18.022;2023-08-30T06:06:04;6.07;;;3.58;;
12141;SDS011;6134;59.284;18.022;2023-08-30T06:08:33;5.57;;;3.40;;
12141;SDS011;6134;59.284;18.022;2023-08-30T06:11:02;4.28;;;3.33;;
12141;SDS011;6134;59.284;18.022;2023-08-30T06:13:32;4.57;;;3.30;;
12141;SDS011;6134;59.284;18.022;2023-08-30T06:16:01;6.53;;;3.55;;
12141;SDS011;6134;59.284;18.022;2023-08-30T06:18:30;4.72;;;3.40;;
12141;SDS011;6134;59.284;18.022;2023-08-30T06:20:58;4.35;;;3.25;;
12141;SDS011;6134;59.284;18.022;2023-08-30T06:23:27;3.53;;;3.22;;
12141;SDS011;6134;59.284;18.022;2023-08-30T06:25:56;5.40;;;3.53;;
12141;SDS011;6134;59.284;18.022;2023-08-30T06:28:25;6.65;;;3.30;;
12141;SDS011;6134;59.284;18.022;2023-08-30T06:30:55;4.95;;;2.88;;
12141;SDS011;6134;59.284;18.022;2023-08-30T06:33:25;3.65;;;3.03;;
12141;SDS011;6134;59.284;18.022;2023-08-30T06:35:53;4.53;;;2.92;;
12141;SDS011;6134;59.284;18.022;2023-08-30T06:38:22;3.45;;;3.15;;
12141;SDS011;6134;59.284;18.022;2023-08-30T06:40:51;3.58;;;2.90;;
12141;SDS011;6134;59.284;18.022;2023-08-30T06:43:20;4.90;;;2.85;;
12141;SDS011;6134;59.284;18.022;2023-08-30T06:45:49;5.78;;;3.47;;
12141;SDS011;6134;59.284;18.022;2023-08-30T06:48:19;3.53;;;3.05;;
12141;SDS011;6134;59.284;18.022;2023-08-30T06:50:48;3.47;;;3.17;;
12141;SDS011;6134;59.284;18.022;2023-08-30T06:53:16;4.47;;;3.10;;
12141;SDS011;6134;59.284;18.022;2023-08-30T06:55:45;3.65;;;2.90;;
12141;SDS011;6134;59.284;18.022;2023-08-30T06:58:14;4.78;;;3.45;;
12141;SDS011;6134;59.284;18.022;2023-08-30T07:00:42;3.30;;;2.97;;
12141;SDS011;6134;59.284;18.022;2023-08-30T07:03:11;6.07;;;3.85;;
12141;SDS011;6134;59.284;18.022;2023-08-30T07:05:41;5.20;;;3.08;;
12141;SDS011;6134;59.284;18.022;2023-08-30T07:08:10;6.40;;;3.30;;
12141;SDS011;6134;59.284;18.022;2023-08-30T07:10:39;3.83;;;3.22;;
12141;SDS011;6134;59.284;18.022;2023-08-30T07:13:08;3.67;;;2.80;;
12141;SDS011;6134;59.284;18.022;2023-08-30T07:15:38;4.30;;;2.95;;
12141;SDS011;6134;59.284;18.022;2023-08-30T07:18:07;5.43;;;2.80;;
12141;SDS011;6134;59.284;18.022;2023-08-30T07:20:38;3.38;;;3.08;;
12141;SDS011;6134;59.284;18.022;2023-08-30T07:23:08;4.47;;;2.70;;
12141;SDS011;6134;59.284;18.022;2023-08-30T07:25:37;4.72;;;2.88;;
12141;SDS011;6134;59.284;18.022;2023-08-30T07:28:06;4.68;;;2.90;;
12141;SDS011;6134;59.284;18.022;2023-08-30T07:30:36;4.72;;;2.60;;
12141;SDS011;6134;59.284;18.022;2023-08-30T07:33:05;5.03;;;2.67;;
12141;SDS011;6134;59.284;18.022;2023-08-30T07:35:33;3.72;;;2.45;;
12141;SDS011;6134;59.284;18.022;2023-08-30T07:38:02;4.30;;;2.47;;
12141;SDS011;6134;59.284;18.022;2023-08-30T07:40:32;4.07;;;2.45;;
12141;SDS011;6134;59.284;18.022;2023-08-30T07:43:01;5.40;;;2.40;;
12141;SDS011;6134;59.284;18.022;2023-08-30T07:45:30;2.90;;;2.00;;
12141;SDS011;6134;59.284;18.022;2023-08-30T07:47:59;3.00;;;2.25;;
12141;SDS011;6134;59.284;18.022;2023-08-30T07:50:27;4.15;;;2.78;;
12141;SDS011;6134;59.284;18.022;2023-08-30T07:52:56;2.88;;;2.45;;
12141;SDS011;6134;59.284;18.022;2023-08-30T07:55:25;3.72;;;2.75;;
12141;SDS011;6134;59.284;18.022;2023-08-30T07:57:55;6.85;;;2.50;;
12141;SDS011;6134;59.284;18.022;2023-08-30T08:00:24;2.45;;;2.20;;
12141;SDS011;6134;59.284;18.022;2023-08-30T08:02:52;5.75;;;2.40;;
12141;SDS011;6134;59.284;18.022;2023-08-30T08:05:21;3.47;;;2.30;;
12141;SDS011;6134;59.284;18.022;2023-08-30T08:07:51;3.08;;;2.40;;
12141;SDS011;6134;59.284;18.022;2023-08-30T08:10:20;2.63;;;2.22;;
12141;SDS011;6134;59.284;18.022;2023-08-30T08:12:49;2.95;;;2.50;;
12141;SDS011;6134;59.284;18.022;2023-08-30T08:15:19;2.85;;;2.50;;
12141;SDS011;6134;59.284;18.022;2023-08-30T08:17:48;2.85;;;2.22;;
12141;SDS011;6134;59.284;18.022;2023-08-30T08:20:17;2.72;;;2.42;;
12141;SDS011;6134;59.284;18.022;2023-08-30T08:22:46;2.58;;;2.20;;
12141;SDS011;6134;59.284;18.022;2023-08-30T08:25:14;4.20;;;2.90;;
12141;SDS011;6134;59.284;18.022;2023-08-30T08:27:43;2.70;;;2.20;;
12141;SDS011;6134;59.284;18.022;2023-08-30T08:30:13;3.70;;;2.50;;
12141;SDS011;6134;59.284;18.022;2023-08-30T08:32:45;4.07;;;2.03;;
12141;SDS011;6134;59.284;18.022;2023-08-30T08:35:14;2.90;;;1.92;;
12141;SDS011;6134;59.284;18.022;2023-08-30T08:37:43;2.00;;;1.70;;
12141;SDS011;6134;59.284;18.022;2023-08-30T08:40:11;2.78;;;1.70;;
12141;SDS011;6134;59.284;18.022;2023-08-30T08:42:44;3.45;;;2.10;;
12141;SDS011;6134;59.284;18.022;2023-08-30T08:45:14;5.95;;;2.40;;
12141;SDS011;6134;59.284;18.022;2023-08-30T08:47:44;3.88;;;1.52;;
12141;SDS011;6134;59.284;18.022;2023-08-30T08:50:14;3.75;;;1.83;;
12141;SDS011;6134;59.284;18.022;2023-08-30T08:52:43;2.55;;;2.13;;
12141;SDS011;6134;59.284;18.022;2023-08-30T08:55:25;3.58;;;2.20;;
12141;SDS011;6134;59.284;18.022;2023-08-30T08:57:57;3.05;;;2.00;;
12141;SDS011;6134;59.284;18.022;2023-08-30T09:00:26;1.63;;;1.52;;
12141;SDS011;6134;59.284;18.022;2023-08-30T09:02:56;4.78;;;1.98;;
12141;SDS011;6134;59.284;18.022;2023-08-30T09:05:25;1.88;;;1.50;;
12141;SDS011;6134;59.284;18.022;2023-08-30T09:07:54;2.72;;;1.75;;
12141;SDS011;6134;59.284;18.022;2023-08-30T09:10:23;3.35;;;1.90;;
12141;SDS011;6134;59.284;18.022;2023-08-30T09:12:52;2.80;;;1.50;;
12141;SDS011;6134;59.284;18.022;2023-08-30T09:15:20;3.40;;;1.80;;
12141;SDS011;6134;59.284;18.022;2023-08-30T09:17:49;2.30;;;1.63;;
12141;SDS011;6134;59.284;18.022;2023-08-30T09:20:19;2.78;;;2.08;;
12141;SDS011;6134;59.284;18.022;2023-08-30T09:22:48;1.73;;;1.30;;
12141;SDS011;6134;59.284;18.022;2023-08-30T09:25:22;5.63;;;2.03;;
12141;SDS011;6134;59.284;18.022;2023-08-30T09:27:51;2.60;;;1.75;;
12141;SDS011;6134;59.284;18.022;2023-08-30T09:30:26;5.38;;;2.28;;
12141;SDS011;6134;59.284;18.022;2023-08-30T09:33:00;1.50;;;1.40;;
12141;SDS011;6134;59.284;18.022;2023-08-30T09:35:31;8.57;;;2.00;;
12141;SDS011;6134;59.284;18.022;2023-08-30T09:38:00;6.05;;;1.80;;
12141;SDS011;6134;59.284;18.022;2023-08-30T09:40:29;8.05;;;1.85;;
12141;SDS011;6134;59.284;18.022;2023-08-30T09:42:58;1.63;;;1.52;;
12141;SDS011;6134;59.284;18.022;2023-08-30T09:45:39;5.22;;;1.70;;
12141;SDS011;6134;59.284;18.022;2023-08-30T09:48:08;1.98;;;1.77;;
12141;SDS011;6134;59.284;18.022;2023-08-30T09:50:38;1.85;;;1.50;;
12141;SDS011;6134;59.284;18.022;2023-08-30T09:53:08;1.70;;;1.50;;
12141;SDS011;6134;59.284;18.022;2023-08-30T09:55:38;3.58;;;1.80;;
12141;SDS011;6134;59.284;18.022;2023-08-30T09:58:07;4.47;;;2.00;;
12141;SDS011;6134;59.284;18.022;2023-08-30T10:00:38;3.65;;;2.10;;
12141;SDS011;6134;59.284;18.022;2023-08-30T10:03:07;3.38;;;1.80;;
12141;SDS011;6134;59.284;18.022;2023-08-30T10:05:57;3.05;;;1.80;;
12141;SDS011;6134;59.284;18.022;2023-08-30T10:08:28;2.25;;;1.52;;
12141;SDS011;6134;59.284;18.022;2023-08-30T10:10:58;4.35;;;2.20;;
12141;SDS011;6134;59.284;18.022;2023-08-30T10:13:29;2.15;;;1.60;;
12141;SDS011;6134;59.284;18.022;2023-08-30T10:15:59;1.77;;;1.50;;
12141;SDS011;6134;59.284;18.022;2023-08-30T10:18:31;5.10;;;2.00;;
12141;SDS011;6134;59.284;18.022;2023-08-30T10:21:07;2.85;;;1.50;;
12141;SDS011;6134;59.284;18.022;2023-08-30T10:23:37;1.77;;;1.60;;
12141;SDS011;6134;59.284;18.022;2023-08-30T10:26:06;1.45;;;1.30;;
12141;SDS011;6134;59.284;18.022;2023-08-30T10:28:35;3.20;;;1.50;;
12141;SDS011;6134;59.284;18.022;2023-08-30T10:31:05;3.60;;;1.73;;
12141;SDS011;6134;59.284;18.022;2023-08-30T10:33:44;2.35;;;1.48;;
12141;SDS011;6134;59.284;18.022;2023-08-30T10:36:21;5.38;;;1.80;;
12141;SDS011;6134;59.284;18.022;2023-08-30T10:38:51;3.25;;;1.50;;
12141;SDS011;6134;59.284;18.022;2023-08-30T10:41:20;1.95;;;1.50;;
12141;SDS011;6134;59.284;18.022;2023-08-30T10:43:50;4.28;;;1.83;;
12141;SDS011;6134;59.284;18.022;2023-08-30T10:46:30;3.28;;;1.50;;
12141;SDS011;6134;59.284;18.022;2023-08-30T10:49:09;2.17;;;1.75;;
12141;SDS011;6134;59.284;18.022;2023-08-30T10:51:39;2.00;;;1.73;;
12141;SDS011;6134;59.284;18.022;2023-08-30T10:54:11;2.65;;;1.63;;
12141;SDS011;6134;59.284;18.022;2023-08-30T10:56:47;3.47;;;1.60;;
12141;SDS011;6134;59.284;18.022;2023-08-30T10:59:16;2.33;;;1.50;;
12141;SDS011;6134;59.284;18.022;2023-08-30T11:01:45;2.58;;;1.30;;
12141;SDS011;6134;59.284;18.022;2023-08-30T11:04:15;1.58;;;1.48;;
12141;SDS011;6134;59.284;18.022;2023-08-30T11:06:46;1.42;;;1.33;;
12141;SDS011;6134;59.284;18.022;2023-08-30T11:09:16;2.30;;;1.17;;
12141;SDS011;6134;59.284;18.022;2023-08-30T11:11:49;3.67;;;1.23;;
12141;SDS011;6134;59.284;18.022;2023-08-30T11:14:18;1.45;;;1.27;;
12141;SDS011;6134;59.284;18.022;2023-08-30T11:16:47;1.38;;;1.27;;
12141;SDS011;6134;59.284;18.022;2023-08-30T11:19:16;1.67;;;1.50;;
12141;SDS011;6134;59.284;18.022;2023-08-30T11:21:46;1.58;;;1.48;;
12141;SDS011;6134;59.284;18.022;2023-08-30T11:24:15;2.03;;;1.45;;
12141;SDS011;6134;59.284;18.022;2023-08-30T11:26:44;1.40;;;1.30;;
12141;SDS011;6134;59.284;18.022;2023-08-30T11:29:12;2.75;;;1.40;;
12141;SDS011;6134;59.284;18.022;2023-08-30T11:31:41;3.70;;;1.50;;
12141;SDS011;6134;59.284;18.022;2023-08-30T11:34:12;1.40;;;1.30;;
12141;SDS011;6134;59.284;18.022;2023-08-30T11:36:41;1.95;;;1.50;;
12141;SDS011;6134;59.284;18.022;2023-08-30T11:39:11;1.67;;;1.13;;
12141;SDS011;6134;59.284;18.022;2023-08-30T11:41:40;1.55;;;1.20;;
12141;SDS011;6134;59.284;18.022;2023-08-30T11:44:10;1.30;;;1.20;;
12141;SDS011;6134;59.284;18.022;2023-08-30T11:46:39;5.88;;;1.38;;
12141;SDS011;6134;59.284;18.022;2023-08-30T11:49:07;3.45;;;1.40;;
12141;SDS011;6134;59.284;18.022;2023-08-30T11:51:36;1.50;;;1.10;;
12141;SDS011;6134;59.284;18.022;2023-08-30T11:54:05;2.47;;;1.20;;
12141;SDS011;6134;59.284;18.022;2023-08-30T11:56:36;1.40;;;1.10;;
12141;SDS011;6134;59.284;18.022;2023-08-30T11:59:04;2.97;;;1.52;;
12141;SDS011;6134;59.284;18.022;2023-08-30T12:01:33;2.00;;;1.27;;
12141;SDS011;6134;59.284;18.022;2023-08-30T12:04:08;1.88;;;1.23;;
12141;SDS011;6134;59.284;18.022;2023-08-30T12:06:37;2.50;;;1.50;;
12141;SDS011;6134;59.284;18.022;2023-08-30T12:09:11;2.10;;;1.50;;
12141;SDS011;6134;59.284;18.022;2023-08-30T12:11:41;1.88;;;1.50;;
12141;SDS011;6134;59.284;18.022;2023-08-30T12:14:10;2.67;;;1.10;;
12141;SDS011;6134;59.284;18.022;2023-08-30T12:16:39;3.13;;;1.67;;
12141;SDS011;6134;59.284;18.022;2023-08-30T12:19:08;1.40;;;1.30;;
12141;SDS011;6134;59.284;18.022;2023-08-30T12:21:42;2.05;;;1.20;;
12141;SDS011;6134;59.284;18.022;2023-08-30T12:24:11;1.52;;;1.40;;
12141;SDS011;6134;59.284;18.022;2023-08-30T12:26:41;2.05;;;1.40;;
12141;SDS011;6134;59.284;18.022;2023-08-30T12:29:10;4.78;;;1.48;;
12141;SDS011;6134;59.284;18.022;2023-08-30T12:31:38;4.05;;;1.38;;
12141;SDS011;6134;59.284;18.022;2023-08-30T12:34:10;4.03;;;1.80;;
12141;SDS011;6134;59.284;18.022;2023-08-30T12:36:39;2.03;;;1.55;;
12141;SDS011;6134;59.284;18.022;2023-08-30T12:39:08;3.25;;;1.45;;
12141;SDS011;6134;59.284;18.022;2023-08-30T12:41:37;1.90;;;1.50;;
12141;SDS011;6134;59.284;18.022;2023-08-30T12:44:09;1.98;;;1.50;;
12141;SDS011;6134;59.284;18.022;2023-08-30T12:46:38;1.58;;;1.20;;
12141;SDS011;6134;59.284;18.022;2023-08-30T12:49:07;2.90;;;1.60;;
12141;SDS011;6134;59.284;18.022;2023-08-30T12:51:36;4.38;;;1.52;;
12141;SDS011;6134;59.284;18.022;2023-08-30T12:54:04;2.85;;;1.50;;
12141;SDS011;6134;59.284;18.022;2023-08-30T12:56:33;2.33;;;1.42;;
12141;SDS011;6134;59.284;18.022;2023-08-30T12:59:02;1.92;;;1.55;;
12141;SDS011;6134;59.284;18.022;2023-08-30T13:01:32;1.52;;;1.42;;
12141;SDS011;6134;59.284;18.022;2023-08-30T13:04:04;2.75;;;1.45;;
12141;SDS011;6134;59.284;18.022;2023-08-30T13:06:32;3.47;;;1.58;;
12141;SDS011;6134;59.284;18.022;2023-08-30T13:09:01;3.33;;;1.42;;
12141;SDS011;6134;59.284;18.022;2023-08-30T13:11:30;3.22;;;1.65;;
12141;SDS011;6134;59.284;18.022;2023-08-30T13:13:59;1.50;;;1.40;;
12141;SDS011;6134;59.284;18.022;2023-08-30T13:16:28;3.13;;;1.50;;
12141;SDS011;6134;59.284;18.022;2023-08-30T13:18:58;1.63;;;1.33;;
12141;SDS011;6134;59.284;18.022;2023-08-30T13:21:27;1.45;;;1.35;;
12141;SDS011;6134;59.284;18.022;2023-08-30T13:24:06;2.08;;;1.27;;
12141;SDS011;6134;59.284;18.022;2023-08-30T13:26:35;3.25;;;1.50;;
12141;SDS011;6134;59.284;18.022;2023-08-30T13:29:04;2.83;;;1.15;;
12141;SDS011;6134;59.284;18.022;2023-08-30T13:31:32;2.05;;;1.00;;
12141;SDS011;6134;59.284;18.022;2023-08-30T13:34:03;1.50;;;1.10;;
12141;SDS011;6134;59.284;18.022;2023-08-30T13:36:31;1.10;;;1.00;;
12141;SDS011;6134;59.284;18.022;2023-08-30T13:38:59;2.17;;;1.10;;
12141;SDS011;6134;59.284;18.022;2023-08-30T13:41:28;1.50;;;1.33;;
12141;SDS011;6134;59.284;18.022;2023-08-30T13:43:57;3.85;;;1.20;;
12141;SDS011;6134;59.284;18.022;2023-08-30T13:46:28;1.48;;;1.38;;
12141;SDS011;6134;59.284;18.022;2023-08-30T13:48:57;2.17;;;1.20;;
12141;SDS011;6134;59.284;18.022;2023-08-30T13:51:27;2.83;;;1.27;;
12141;SDS011;6134;59.284;18.022;2023-08-30T13:53:56;1.15;;;1.05;;
12141;SDS011;6134;59.284;18.022;2023-08-30T13:56:25;2.40;;;1.35;;
12141;SDS011;6134;59.284;18.022;2023-08-30T13:58:57;3.13;;;1.20;;
12141;SDS011;6134;59.284;18.022;2023-08-30T14:01:26;1.75;;;1.33;;
12141;SDS011;6134;59.284;18.022;2023-08-30T14:03:54;1.35;;;1.20;;
12141;SDS011;6134;59.284;18.022;2023-08-30T14:06:23;3.15;;;1.30;;
12141;SDS011;6134;59.284;18.022;2023-08-30T14:08:53;1.30;;;1.20;;
12141;SDS011;6134;59.284;18.022;2023-08-30T14:11:22;2.25;;;1.25;;
12141;SDS011;6134;59.284;18.022;2023-08-30T14:13:51;3.53;;;1.30;;
12141;SDS011;6134;59.284;18.022;2023-08-30T14:16:21;3.60;;;1.70;;
12141;SDS011;6134;59.284;18.022;2023-08-30T14:18:55;2.55;;;1.20;;
12141;SDS011;6134;59.284;18.022;2023-08-30T14:21:26;2.10;;;1.25;;
12141;SDS011;6134;59.284;18.022;2023-08-30T14:23:57;2.53;;;1.23;;
12141;SDS011;6134;59.284;18.022;2023-08-30T14:26:25;1.50;;;1.30;;
12141;SDS011;6134;59.284;18.022;2023-08-30T14:28:54;2.28;;;1.08;;
12141;SDS011;6134;59.284;18.022;2023-08-30T14:31:23;4.57;;;1.10;;
12141;SDS011;6134;59.284;18.022;2023-08-30T14:33:54;3.53;;;1.48;;
12141;SDS011;6134;59.284;18.022;2023-08-30T14:36:23;2.33;;;1.10;;
12141;SDS011;6134;59.284;18.022;2023-08-30T14:38:52;1.98;;;1.23;;
12141;SDS011;6134;59.284;18.022;2023-08-30T14:41:22;1.83;;;1.30;;
12141;SDS011;6134;59.284;18.022;2023-08-30T14:43:51;1.65;;;1.35;;
12141;SDS011;6134;59.284;18.022;2023-08-30T14:46:20;1.95;;;1.40;;
12141;SDS011;6134;59.284;18.022;2023-08-30T14:48:50;2.05;;;1.08;;
12141;SDS011;6134;59.284;18.022;2023-08-30T14:51:19;1.52;;;1.35;;
12141;SDS011;6134;59.284;18.022;2023-08-30T14:53:47;2.65;;;1.20;;
12141;SDS011;6134;59.284;18.022;2023-08-30T14:56:16;3.75;;;1.35;;
12141;SDS011;6134;59.284;18.022;2023-08-30T14:58:46;2.42;;;1.42;;
12141;SDS011;6134;59.284;18.022;2023-08-30T15:01:17;2.60;;;1.13;;
12141;SDS011;6134;59.284;18.022;2023-08-30T15:03:46;2.47;;;1.10;;